Terminal Aerodrome Forecast
Issued by NWS

Home | Current Version | Previous Version | Graphics & Text | Print | Product List | Glossary On
Versions: 1 2 3 4 5 6 7 8 9 10 11 12 13 14 15 16 17 18 19 20 21 22 23 24 25 26 27 28 29 30 31 32 33 34 35 36
000
FTUS43 KLOT 041420 AAA
TAFDPA
TAF AMD
KDPA 041420Z 0414/0512 28008KT P6SM SCT040 OVC150
     FM041600 35009KT 6SM BR SCT008 BKN100
     FM041800 01010KT P6SM SCT015 BKN150
     FM042000 04011KT P6SM BKN035
     FM050000 07009KT P6SM VCSH BKN040
     FM050400 07010KT 4SM -SHRA VCTS OVC020CB PROB30 0506/0510 3SM
      TSRA OVC010CB=

USA.gov is the U.S. government's official web portal to all federal, state and local government web resources and services.